9APIS LDZA-LDZL
Flight info
| Callsign | 9APIS |
|---|---|
| Flight time | 0h -7m |
| Altitude | 3000 |
| Route | H4 |
| Aircraft | C172/L-S/C |
Departure
| Time | 2026-05-04 21:39 |
|---|---|
| Airport | Zagreb Franjo Tuđman International Airport (LDZA) |
Arrival
| Time | 2026-05-04 21:31 |
|---|---|
| Airport | Lučko Airfield (LDZL) |
| Time | Latitude | Longitude | Altitude | Speed | Heading |
|---|---|---|---|---|---|
| 2026-05-04 21:31 | 45.74077 | 16.07707 | 357 ft | 0 kts | 266° |
| 2026-05-04 21:33 | 45.74076 | 16.07698 | 357 ft | 4 kts | 264° |
| 2026-05-04 21:34 | 45.74075 | 16.07649 | 357 ft | 0 kts | 339° |
| 2026-05-04 21:34 | 45.74081 | 16.07646 | 357 ft | 0 kts | 344° |
| 2026-05-04 21:34 | 45.74082 | 16.07646 | 357 ft | 0 kts | 344° |
| 2026-05-04 21:37 | 45.74093 | 16.07648 | 357 ft | 9 kts | 23° |
| 2026-05-04 21:37 | 45.74210 | 16.07805 | 357 ft | 18 kts | 40° |
| 2026-05-04 21:37 | 45.74384 | 16.07889 | 357 ft | 23 kts | 334° |
| 2026-05-04 21:37 | 45.74536 | 16.07710 | 357 ft | 32 kts | 327° |
| 2026-05-04 21:38 | 45.74662 | 16.07467 | 357 ft | 21 kts | 247° |
| 2026-05-04 21:38 | 45.74559 | 16.07293 | 357 ft | 38 kts | 231° |
| 2026-05-04 21:38 | 45.74262 | 16.06824 | 409 ft | 71 kts | 228° |
| 2026-05-04 21:38 | 45.73901 | 16.06256 | 566 ft | 76 kts | 227° |
| 2026-05-04 21:39 | 45.73545 | 16.05646 | 712 ft | 80 kts | 230° |
| 2026-05-04 21:39 | 45.73325 | 16.04921 | 844 ft | 84 kts | 265° |
| 2026-05-04 21:39 | 45.73395 | 16.04091 | 983 ft | 86 kts | 281° |
| 2026-05-04 21:39 | 45.73483 | 16.03220 | 1108 ft | 85 kts | 274° |
| 2026-05-04 21:40 | 45.73559 | 16.02504 | 1333 ft | 79 kts | 281° |
| 2026-05-04 21:40 | 45.73674 | 16.01661 | 1364 ft | 93 kts | 280° |
| 2026-05-04 21:40 | 45.73851 | 16.00789 | 1425 ft | 89 kts | 289° |
| 2026-05-04 21:40 | 45.74068 | 15.99928 | 1410 ft | 91 kts | 290° |
| 2026-05-04 21:41 | 45.74191 | 15.99439 | 1102 ft | 83 kts | 289° |
| 2026-05-04 21:41 | 45.74668 | 15.99180 | 1274 ft | 60 kts | 333° |
| 2026-05-04 21:41 | 45.75015 | 15.98750 | 1264 ft | 72 kts | 302° |
| 2026-05-04 21:41 | 45.75204 | 15.98029 | 1282 ft | 78 kts | 288° |
| 2026-05-04 21:42 | 45.75401 | 15.97209 | 1296 ft | 91 kts | 291° |
| 2026-05-04 21:42 | 45.75663 | 15.96213 | 1104 ft | 117 kts | 288° |
| 2026-05-04 21:42 | 45.75811 | 15.95197 | 1295 ft | 87 kts | 277° |
| 2026-05-04 21:42 | 45.75934 | 15.94321 | 1274 ft | 89 kts | 285° |
| 2026-05-04 21:43 | 45.76122 | 15.93460 | 1281 ft | 88 kts | 284° |
| 2026-05-04 21:43 | 45.76014 | 15.92625 | 1260 ft | 91 kts | 244° |
| 2026-05-04 21:43 | 45.75673 | 15.91836 | 1223 ft | 94 kts | 233° |
| 2026-05-04 21:43 | 45.75247 | 15.91099 | 1182 ft | 97 kts | 230° |
| 2026-05-04 21:44 | 45.74829 | 15.90340 | 1165 ft | 96 kts | 238° |
| 2026-05-04 21:44 | 45.74695 | 15.89455 | 1166 ft | 83 kts | 281° |
| 2026-05-04 21:44 | 45.74835 | 15.88745 | 1102 ft | 69 kts | 289° |
| 2026-05-04 21:44 | 45.75020 | 15.88123 | 1027 ft | 66 kts | 295° |
| 2026-05-04 21:45 | 45.75238 | 15.87554 | 1005 ft | 66 kts | 299° |
| 2026-05-04 21:45 | 45.75449 | 15.86944 | 987 ft | 67 kts | 295° |
| 2026-05-04 21:45 | 45.75665 | 15.86346 | 979 ft | 66 kts | 297° |
| 2026-05-04 21:45 | 45.75745 | 15.85704 | 951 ft | 69 kts | 266° |
| 2026-05-04 21:46 | 45.75748 | 15.85032 | 947 ft | 67 kts | 274° |
| 2026-05-04 21:46 | 45.75780 | 15.84354 | 905 ft | 71 kts | 276° |
| 2026-05-04 21:46 | 45.75853 | 15.83638 | 883 ft | 72 kts | 277° |
| 2026-05-04 21:46 | 45.76047 | 15.83025 | 884 ft | 64 kts | 354° |
| 2026-05-04 21:47 | 45.76511 | 15.83136 | 857 ft | 63 kts | 14° |
| 2026-05-04 21:47 | 45.76825 | 15.83582 | 701 ft | 71 kts | 74° |
| 2026-05-04 21:47 | 45.76758 | 15.84293 | 494 ft | 72 kts | 103° |
| 2026-05-04 21:47 | 45.76654 | 15.84924 | 394 ft | 54 kts | 103° |
| 2026-05-04 21:48 | 45.76552 | 15.85557 | 462 ft | 73 kts | 105° |
| 2026-05-04 21:48 | 45.76399 | 15.86252 | 673 ft | 73 kts | 109° |
| 2026-05-04 21:48 | 45.76196 | 15.86989 | 844 ft | 82 kts | 140° |
| 2026-05-04 21:48 | 45.75671 | 15.86843 | 987 ft | 86 kts | 206° |
| 2026-05-04 21:49 | 45.75434 | 15.86219 | 1016 ft | 82 kts | 289° |
| 2026-05-04 21:49 | 45.75660 | 15.85408 | 1004 ft | 87 kts | 292° |
| 2026-05-04 21:49 | 45.75906 | 15.84578 | 1002 ft | 90 kts | 293° |
| 2026-05-04 21:49 | 45.76160 | 15.83729 | 990 ft | 93 kts | 294° |
| 2026-05-04 21:50 | 45.76551 | 15.83322 | 1013 ft | 68 kts | 19° |
| 2026-05-04 21:50 | 45.76806 | 15.83839 | 719 ft | 73 kts | 87° |
| 2026-05-04 21:50 | 45.76717 | 15.84533 | 415 ft | 64 kts | 104° |
| 2026-05-04 21:50 | 45.76621 | 15.85130 | 404 ft | 73 kts | 103° |
| 2026-05-04 21:51 | 45.76454 | 15.85872 | 618 ft | 77 kts | 110° |
| 2026-05-04 21:51 | 45.76239 | 15.86609 | 849 ft | 81 kts | 114° |
| 2026-05-04 21:51 | 45.75991 | 15.87353 | 1079 ft | 83 kts | 118° |
| 2026-05-04 21:51 | 45.75670 | 15.88148 | 1217 ft | 96 kts | 132° |
| 2026-05-04 21:52 | 45.75043 | 15.88526 | 1305 ft | 108 kts | 179° |
| 2026-05-04 21:52 | 45.74286 | 15.88230 | 1326 ft | 117 kts | 214° |
| 2026-05-04 21:52 | 45.73742 | 15.87421 | 1274 ft | 109 kts | 238° |
| 2026-05-04 21:52 | 45.73362 | 15.86529 | 1228 ft | 102 kts | 239° |
| 2026-05-04 21:53 | 45.73011 | 15.85673 | 1176 ft | 98 kts | 240° |
| 2026-05-04 21:53 | 45.72671 | 15.84850 | 1135 ft | 94 kts | 239° |
| 2026-05-04 21:53 | 45.72351 | 15.84048 | 1099 ft | 90 kts | 239° |
| 2026-05-04 21:53 | 45.72005 | 15.83259 | 1101 ft | 99 kts | 237° |
| 2026-05-04 21:54 | 45.71633 | 15.82374 | 1104 ft | 108 kts | 239° |
| 2026-05-04 21:54 | 45.71247 | 15.81424 | 1104 ft | 113 kts | 239° |
| 2026-05-04 21:54 | 45.70847 | 15.80433 | 1101 ft | 116 kts | 241° |
| 2026-05-04 21:54 | 45.70429 | 15.79439 | 1124 ft | 116 kts | 239° |
| 2026-05-04 21:55 | 45.70011 | 15.78440 | 1117 ft | 118 kts | 238° |
| 2026-05-04 21:55 | 45.69468 | 15.77666 | 1233 ft | 107 kts | 189° |
| 2026-05-04 21:55 | 45.68713 | 15.77753 | 1223 ft | 114 kts | 170° |
| 2026-05-04 21:55 | 45.67917 | 15.77960 | 1210 ft | 117 kts | 171° |
| 2026-05-04 21:56 | 45.67123 | 15.78114 | 1272 ft | 113 kts | 173° |
| 2026-05-04 21:56 | 45.66330 | 15.78279 | 1274 ft | 115 kts | 171° |
| 2026-05-04 21:56 | 45.65535 | 15.78454 | 1284 ft | 116 kts | 172° |
| 2026-05-04 21:56 | 45.64723 | 15.78602 | 1288 ft | 117 kts | 175° |
| 2026-05-04 21:57 | 45.63911 | 15.78696 | 1275 ft | 119 kts | 175° |
| 2026-05-04 21:57 | 45.63092 | 15.78846 | 1308 ft | 110 kts | 143° |
| 2026-05-04 21:57 | 45.63170 | 15.79640 | 1465 ft | 88 kts | 63° |
| 2026-05-04 21:57 | 45.63118 | 15.80349 | 1397 ft | 70 kts | 141° |
| 2026-05-04 21:58 | 45.62605 | 15.80497 | 939 ft | 85 kts | 202° |
| 2026-05-04 21:58 | 45.62149 | 15.79978 | 510 ft | 81 kts | 224° |
| 2026-05-04 21:58 | 45.61791 | 15.79527 | 366 ft | 51 kts | 222° |
| 2026-05-04 21:58 | 45.61507 | 15.79226 | 392 ft | 65 kts | 215° |
| 2026-05-04 21:59 | 45.61122 | 15.78831 | 565 ft | 70 kts | 217° |
| 2026-05-04 21:59 | 45.60803 | 15.78339 | 758 ft | 72 kts | 251° |
| 2026-05-04 21:59 | 45.60950 | 15.77666 | 956 ft | 77 kts | 314° |
| 2026-05-04 21:59 | 45.61416 | 15.77172 | 1104 ft | 90 kts | 326° |
| 2026-05-04 22:00 | 45.61984 | 15.76718 | 1261 ft | 98 kts | 351° |
| 2026-05-04 22:00 | 45.62539 | 15.77263 | 1327 ft | 111 kts | 61° |
| 2026-05-04 22:00 | 45.62925 | 15.78232 | 1356 ft | 103 kts | 60° |
| 2026-05-04 22:00 | 45.63277 | 15.79022 | 1353 ft | 85 kts | 55° |
| 2026-05-04 22:01 | 45.63605 | 15.79670 | 1301 ft | 77 kts | 55° |
| 2026-05-04 22:01 | 45.63876 | 15.80288 | 1229 ft | 69 kts | 60° |
| 2026-05-04 22:01 | 45.63697 | 15.80832 | 1090 ft | 72 kts | 140° |
| 2026-05-04 22:01 | 45.63243 | 15.81168 | 955 ft | 80 kts | 182° |
| 2026-05-04 22:02 | 45.62772 | 15.80767 | 784 ft | 77 kts | 225° |
| 2026-05-04 22:02 | 45.62384 | 15.80250 | 568 ft | 75 kts | 221° |
| 2026-05-04 22:02 | 45.62007 | 15.79794 | 378 ft | 65 kts | 220° |
| 2026-05-04 22:02 | 45.61712 | 15.79437 | 370 ft | 61 kts | 218° |
| 2026-05-04 22:03 | 45.61345 | 15.79011 | 521 ft | 70 kts | 221° |
| 2026-05-04 22:03 | 45.60978 | 15.78541 | 722 ft | 69 kts | 227° |
| 2026-05-04 22:03 | 45.60769 | 15.77931 | 920 ft | 72 kts | 278° |
| 2026-05-04 22:03 | 45.61101 | 15.77379 | 1086 ft | 82 kts | 323° |
| 2026-05-04 22:04 | 45.61600 | 15.76867 | 1197 ft | 97 kts | 326° |
| 2026-05-04 22:04 | 45.62139 | 15.76346 | 1225 ft | 90 kts | 327° |
| 2026-05-04 22:04 | 45.62689 | 15.76210 | 1246 ft | 82 kts | 47° |
| 2026-05-04 22:04 | 45.63008 | 15.76926 | 1186 ft | 88 kts | 56° |
| 2026-05-04 22:05 | 45.63343 | 15.77656 | 1197 ft | 86 kts | 56° |
| 2026-05-04 22:05 | 45.63676 | 15.78367 | 1212 ft | 86 kts | 55° |
| 2026-05-04 22:05 | 45.64016 | 15.79092 | 1188 ft | 90 kts | 57° |
| 2026-05-04 22:05 | 45.64013 | 15.79838 | 1236 ft | 82 kts | 141° |
| 2026-05-04 22:06 | 45.63573 | 15.80277 | 1230 ft | 72 kts | 146° |
| 2026-05-04 22:06 | 45.63183 | 15.80665 | 1145 ft | 66 kts | 147° |
| 2026-05-04 22:06 | 45.62717 | 15.80630 | 889 ft | 78 kts | 213° |
| 2026-05-04 22:06 | 45.62334 | 15.80183 | 625 ft | 69 kts | 221° |
| 2026-05-04 22:07 | 45.61976 | 15.79753 | 372 ft | 61 kts | 220° |
| 2026-05-04 22:07 | 45.61733 | 15.79460 | 368 ft | 26 kts | 219° |
| 2026-05-04 22:07 | 45.61706 | 15.79394 | 373 ft | 0 kts | 332° |
| 2026-05-04 22:07 | 45.61742 | 15.79374 | 373 ft | 4 kts | 341° |
| 2026-05-04 22:08 | 45.61778 | 15.79343 | 374 ft | 9 kts | 322° |
| 2026-05-04 22:08 | 45.61805 | 15.79308 | 375 ft | 2 kts | 307° |
| 2026-05-04 22:08 | 45.61821 | 15.79297 | 375 ft | 0 kts | 335° |